^^
Station Historical Data
Daily Summary for August 24, 2017 Units:  Metric    English   Both
« Previous Day
Next Day »
Daily Weekly Monthly Yearly Custom
  High: Low: Average:
Temperature: 18.5 °C 3.2 °C 8.6 °C
Dew Point: 4 °C -8.6 °C -3 °C
Humidity: 64% 17% 46%
Wind Speed: 25.9km/h 0km/h 3.7km/h
Wind Gust: 25.9km/h - -
Wind- - SSW
Pressure: 1018.8 hPa 1016.1 hPa -
Precipitation: 0 mm    
Historical Graphs
 
 
Tabular Data for August 24, 2017
Time Temperature Dew Point Pressure Wind Wind Speed Wind Gust Humidity Rainfall Rate (Hourly) solar Conditions
00:02 9.2 °C -3.1 °C 1017.2 hPa Calm     42% 0 mm 0.0 W/m2
00:08 9 °C -3.2 °C 1017.2 hPa Calm     42% 0 mm 0.0 W/m2
00:13 8.8 °C -3.1 °C 1017.2 hPa Calm     43% 0 mm 0.0 W/m2
00:18 8.6 °C -3 °C 1017.2 hPa Calm     44% 0 mm 0.0 W/m2
00:28 8.2 °C -3.6 °C 1017.2 hPa Calm     43% 0 mm 0.0 W/m2
00:33 8 °C -3.5 °C 1016.8 hPa Calm     44% 0 mm 0.0 W/m2
00:43 7.7 °C -3.5 °C 1016.8 hPa Calm     45% 0 mm 0.0 W/m2
00:49 7.6 °C -3 °C 1017.2 hPa Calm     47% 0 mm 0.0 W/m2
00:54 7.8 °C -3.1 °C 1017.2 hPa Calm     46% 0 mm 0.0 W/m2
01:04 7.7 °C -3.2 °C 1017.2 hPa Calm     46% 0 mm 0.0 W/m2
01:09 7.8 °C -2.8 °C 1017.2 hPa Calm     47% 0 mm 0.0 W/m2
01:14 8.1 °C -2.5 °C 1016.8 hPa Calm     47% 0 mm 0.0 W/m2
01:19 8.1 °C -2.5 °C 1016.8 hPa Calm     47% 0 mm 0.0 W/m2
01:25 8 °C -2.9 °C 1016.8 hPa Calm     46% 0 mm 0.0 W/m2
01:30 7.9 °C -2.4 °C 1016.8 hPa Calm     48% 0 mm 0.0 W/m2
01:35 7.8 °C -2.8 °C 1016.8 hPa Calm     47% 0 mm 0.0 W/m2
01:40 7.8 °C -2.8 °C 1016.8 hPa Calm     47% 0 mm 0.0 W/m2
01:45 7.8 °C -3.4 °C 1016.8 hPa Calm     45% 0 mm 0.0 W/m2
01:50 7.8 °C -3.1 °C 1016.8 hPa Calm     46% 0 mm 0.0 W/m2
01:56 7.8 °C -3.7 °C 1016.8 hPa Calm     44% 0 mm 0.0 W/m2
02:01 7.6 °C -3.9 °C 1016.8 hPa Calm     44% 0 mm 0.0 W/m2
02:11 7.1 °C -4 °C 1016.8 hPa Calm     45% 0 mm 0.0 W/m2
02:17 6.9 °C -4.2 °C 1016.8 hPa Calm     45% 0 mm 0.0 W/m2
02:22 6.7 °C -3.8 °C 1016.8 hPa Calm     47% 0 mm 0.0 W/m2
02:27 6.6 °C -4.8 °C 1016.8 hPa Calm     44% 0 mm 0.0 W/m2
02:32 6.3 °C -5.1 °C 1016.8 hPa Calm     44% 0 mm 0.0 W/m2
02:37 6.2 °C -4.3 °C 1016.8 hPa Calm     47% 0 mm 0.0 W/m2
02:42 6.1 °C -4.4 °C 1016.8 hPa Calm     47% 0 mm 0.0 W/m2
02:47 5.9 °C -4.8 °C 1016.8 hPa Calm     46% 0 mm 0.0 W/m2
02:53 5.7 °C -4.7 °C 1016.5 hPa Calm     47% 0 mm 0.0 W/m2
02:58 5.4 °C -4.7 °C 1016.5 hPa Calm     48% 0 mm 0.0 W/m2
03:03 5.4 °C -4.5 °C 1016.5 hPa Calm     49% 0 mm 0.0 W/m2
03:08 5.4 °C -4.7 °C 1016.5 hPa Calm     48% 0 mm 0.0 W/m2
03:14 5.2 °C -4.9 °C 1016.5 hPa Calm     48% 0 mm 0.0 W/m2
03:19 5.1 °C -3.7 °C 1016.5 hPa Calm     53% 0 mm 0.0 W/m2
03:29 4.9 °C -3.9 °C 1016.5 hPa Calm     53% 0 mm 0.0 W/m2
03:34 5.2 °C -3.9 °C 1016.5 hPa Calm     52% 0 mm 0.0 W/m2
03:39 5.8 °C -3.8 °C 1016.5 hPa Calm     50% 0 mm 0.0 W/m2
03:44 5.8 °C -4.4 °C 1016.5 hPa Calm     48% 0 mm 0.0 W/m2
03:50 5.6 °C -4.6 °C 1016.5 hPa Calm     48% 0 mm 0.0 W/m2
03:55 5.4 °C -3.9 °C 1016.5 hPa Calm     51% 0 mm 0.0 W/m2
04:00 5.6 °C -3.7 °C 1016.5 hPa Calm     51% 0 mm 0.0 W/m2
04:05 5.8 °C -3.6 °C 1016.1 hPa Calm     51% 0 mm 0.0 W/m2
04:11 5.7 °C -4.7 °C 1016.5 hPa Calm     47% 0 mm 0.0 W/m2
04:16 5.5 °C -3.8 °C 1016.1 hPa Calm     51% 0 mm 0.0 W/m2
04:21 5.4 °C -4.5 °C 1016.5 hPa Calm     49% 0 mm 0.0 W/m2
04:26 5.2 °C -4.6 °C 1016.5 hPa Calm     49% 0 mm 0.0 W/m2
04:31 4.9 °C -4.9 °C 1016.1 hPa Calm     49% 0 mm 0.0 W/m2
04:36 4.6 °C -5.5 °C 1016.1 hPa Calm     48% 0 mm 0.0 W/m2
04:41 4.4 °C -5.1 °C 1016.1 hPa Calm     50% 0 mm 0.0 W/m2
04:46 4.2 °C -5.6 °C 1016.1 hPa Calm     49% 0 mm 0.0 W/m2
04:52 4.2 °C -4.8 °C 1016.1 hPa Calm     52% 0 mm 0.0 W/m2
04:57 4.5 °C -4.5 °C 1016.1 hPa Calm     52% 0 mm 0.0 W/m2
05:02 4.8 °C -4.5 °C 1016.1 hPa Calm     51% 0 mm 0.0 W/m2
05:08 4.7 °C -4.8 °C 1016.1 hPa Calm     50% 0 mm 0.0 W/m2
05:13 4.6 °C -4.7 °C 1016.5 hPa Calm     51% 0 mm 0.0 W/m2
05:18 4.4 °C -4.9 °C 1016.5 hPa Calm     51% 0 mm 0.0 W/m2
05:24 4.1 °C -5.4 °C 1016.5 hPa Calm     50% 0 mm 0.0 W/m2
05:29 3.9 °C -5.3 °C 1016.5 hPa Calm     51% 0 mm 0.0 W/m2
05:34 3.7 °C -4.8 °C 1016.5 hPa Calm     54% 0 mm 0.0 W/m2
05:39 3.6 °C -5.3 °C 1016.8 hPa Calm     52% 0 mm 0.0 W/m2
05:45 3.4 °C -5.3 °C 1016.8 hPa Calm     53% 0 mm 0.0 W/m2
05:50 3.3 °C -4.9 °C 1016.8 hPa Calm     55% 0 mm 0.0 W/m2
05:55 3.2 °C -5 °C 1016.8 hPa Calm     55% 0 mm 0.0 W/m2
06:00 3.2 °C -4.7 °C 1016.8 hPa Calm     56% 0 mm 0.0 W/m2
06:06 3.2 °C -5 °C 1016.8 hPa Calm     55% 0 mm 0.0 W/m2
06:12 3.2 °C -5.5 °C 1017.2 hPa Calm     53% 0 mm 0.0 W/m2
06:17 3.3 °C -5.1 °C 1017.2 hPa Calm     54% 0 mm 5.0 W/m2
06:26 3.5 °C -4.9 °C 1017.5 hPa Calm     54% 0 mm 11.0 W/m2
06:31 3.5 °C -5.2 °C 1017.5 hPa Calm     53% 0 mm 12.0 W/m2
06:36 3.4 °C -5.3 °C 1017.5 hPa Calm     53% 0 mm 14.0 W/m2
06:42 3.3 °C -5.4 °C 1017.5 hPa Calm     53% 0 mm 16.0 W/m2
06:47 3.3 °C -5.4 °C 1017.5 hPa Calm     53% 0 mm 47.0 W/m2
06:57 4 °C -4.7 °C 1017.8 hPa Calm     53% 0 mm 104.0 W/m2
07:02 4.6 °C -4.4 °C 1017.5 hPa Calm     52% 0 mm 125.0 W/m2
07:07 5.2 °C -4.1 °C 1017.8 hPa Calm     51% 0 mm 141.0 W/m2
07:23 6.7 °C -3.3 °C 1017.8 hPa Calm     49% 0 mm 188.0 W/m2
07:38 8.5 °C -1.9 °C 1017.8 hPa Calm     48% 0 mm 246.0 W/m2
07:54 10 °C -1.7 °C 1017.8 hPa Calm     44% 0 mm 295.0 W/m2
08:10 11.3 °C -1.2 °C 1017.8 hPa North 9.7 km/h 11.3 km/h 42% 0 mm 345.0 W/m2
08:25 12.2 °C -0.7 °C 1017.8 hPa North 14.3 km/h 17.7 km/h 41% 0 mm 388.0 W/m2
08:37 13 °C -0.6 °C 1018.2 hPa North 11.1 km/h 17.7 km/h 39% 0 mm 434.0 W/m2
08:47 13.5 °C -0.9 °C 1017.8 hPa North 11.1 km/h 14.5 km/h 37% 0 mm 462.0 W/m2
08:53 13.9 °C -0.9 °C 1017.8 hPa North 11.1 km/h 12.9 km/h 36% 0 mm 489.0 W/m2
09:08 14.7 °C -0.6 °C 1017.8 hPa North 9.7 km/h 12.9 km/h 35% 0 mm 529.0 W/m2
09:26 15.3 °C -0.9 °C 1017.8 hPa North 7.9 km/h 12.9 km/h 33% 0 mm 566.0 W/m2
09:34 15.6 °C -1 °C 1017.8 hPa Calm     32% 0 mm 589.0 W/m2
09:45 16.2 °C -1 °C 1017.8 hPa Calm     31% 0 mm 615.0 W/m2
10:35 18.3 °C -2.1 °C 1017.5 hPa Calm     25% 0 mm 700.0 W/m2
10:47 18.5 °C -1.4 °C 1017.2 hPa Calm     26% 0 mm 712.0 W/m2
18:29 16.6 °C -8.6 °C 1016.5 hPa South 7.9 km/h 14.5 km/h 17% 0 mm 0.0 W/m2
18:45 16.6 °C -7.1 °C 1016.8 hPa South 20.9 km/h 20.9 km/h 19% 0 mm 0.0 W/m2
18:54 16.2 °C -6.2 °C 1016.8 hPa South 13 km/h 16.1 km/h 21% 0 mm 0.0 W/m2
19:01 16.2 °C -6.2 °C 1016.8 hPa South 13 km/h 16.1 km/h 21% 0 mm 0.0 W/m2
19:10 15.6 °C -6.1 °C 1017.2 hPa South 13 km/h 14.5 km/h 22% 0 mm 0.0 W/m2
19:17 15.6 °C -6.1 °C 1017.2 hPa South 13 km/h 14.5 km/h 22% 0 mm 0.0 W/m2
19:25 15.1 °C -6.5 °C 1017.2 hPa South 7.9 km/h 12.9 km/h 22% 0 mm 0.0 W/m2
19:40 14.8 °C -5.6 °C 1017.2 hPa South 9.7 km/h 12.9 km/h 24% 0 mm 0.0 W/m2
19:55 14.7 °C -4.6 °C 1017.5 hPa South 11.1 km/h 12.9 km/h 26% 0 mm 0.0 W/m2
20:10 14.1 °C -4.6 °C 1017.5 hPa South 7.9 km/h 11.3 km/h 27% 0 mm 0.0 W/m2
20:16 14.1 °C -4.6 °C 1017.5 hPa South 7.9 km/h 11.3 km/h 27% 0 mm 0.0 W/m2
20:30 13.6 °C -4.6 °C 1017.5 hPa South 9.7 km/h 11.3 km/h 28% 0 mm 0.0 W/m2
20:42 13.2 °C -4.5 °C 1017.5 hPa South 9.7 km/h 9.7 km/h 29% 0 mm 0.0 W/m2
20:56 12.7 °C -4.4 °C 1017.8 hPa South 11.1 km/h 11.3 km/h 30% 0 mm 0.0 W/m2
21:06 12.6 °C -4.1 °C 1017.8 hPa South 7.9 km/h 8 km/h 31% 0 mm 0.0 W/m2
21:17 12.2 °C -4 °C 1017.8 hPa Calm     32% 0 mm 0.0 W/m2
21:32 11.8 °C -4 °C 1018.2 hPa Calm     33% 0 mm 0.0 W/m2
21:46 11.3 °C -4 °C 1018.5 hPa Calm     34% 0 mm 0.0 W/m2
21:58 12.3 °C 0.4 °C 1018.2 hPa South 13 km/h 14.5 km/h 44% 0 mm 0.0 W/m2
22:13 12.2 °C 1.8 °C 1018.5 hPa South 13 km/h 16.1 km/h 49% 0 mm 0.0 W/m2
22:23 12 °C 3.2 °C 1018.5 hPa South 25.9 km/h 25.9 km/h 55% 0 mm 0.0 W/m2
22:29 12 °C 3.5 °C 1018.8 hPa South 19.5 km/h 22.5 km/h 56% 0 mm 0.0 W/m2
22:34 11.9 °C 3.6 °C 1018.8 hPa South 17.7 km/h 19.3 km/h 57% 0 mm 0.0 W/m2
22:39 11.9 °C 3.6 °C 1018.8 hPa South 13 km/h 17.7 km/h 57% 0 mm 0.0 W/m2
22:48 11.7 °C 4 °C 1018.8 hPa South 9.7 km/h 17.7 km/h 59% 0 mm 0.0 W/m2
22:58 11.4 °C 3.9 °C 1018.8 hPa South 9.7 km/h 12.9 km/h 60% 0 mm 0.0 W/m2
23:03 11.3 °C 3.8 °C 1018.8 hPa South 9.7 km/h 14.5 km/h 60% 0 mm 0.0 W/m2
23:08 11.2 °C 4 °C 1018.8 hPa South 11.1 km/h 12.9 km/h 61% 0 mm 0.0 W/m2
23:13 11.2 °C 3.7 °C 1018.8 hPa South 9.7 km/h 9.7 km/h 60% 0 mm 0.0 W/m2
23:23 10.6 °C 3.6 °C 1018.8 hPa South 7.9 km/h 12.9 km/h 62% 0 mm 0.0 W/m2
23:29 10.4 °C 3.4 °C 1018.8 hPa South 7.9 km/h 11.3 km/h 62% 0 mm 0.0 W/m2
23:39 10.2 °C 3.5 °C 1018.5 hPa South 9.7 km/h 12.9 km/h 63% 0 mm 0.0 W/m2
23:44 10.2 °C 3.7 °C 1018.5 hPa South 9.7 km/h 14.5 km/h 64% 0 mm 0.0 W/m2
23:49 10.2 °C 3.7 °C 1018.5 hPa South 11.1 km/h 16.1 km/h 64% 0 mm 0.0 W/m2
23:54 10.2 °C 3.7 °C 1018.5 hPa South 11.1 km/h 14.5 km/h 64% 0 mm 0.0 W/m2
23:59 10.1 °C 3.6 °C 1018.5 hPa South 11.1 km/h 16.1 km/h 64% 0 mm 0.0 W/m2
Canyon Roadhouse, Fishriver Canyon, Namibia
Compliments of Weather Underground - 2.25 mb